sensor_id;sensor_type;location;lat;lon;timestamp;temperature;humidity
38428;DHT22;24211;49.980;19.776;2023-07-13T00:02:08;25.10;98.70
38428;DHT22;24211;49.980;19.776;2023-07-13T00:04:36;25.00;99.40
38428;DHT22;24211;49.980;19.776;2023-07-13T00:07:04;25.00;99.70
38428;DHT22;24211;49.980;19.776;2023-07-13T00:09:31;25.00;99.60
38428;DHT22;24211;49.980;19.776;2023-07-13T00:11:58;25.00;99.70
38428;DHT22;24211;49.980;19.776;2023-07-13T00:14:26;24.90;99.70
38428;DHT22;24211;49.980;19.776;2023-07-13T00:16:55;24.90;99.80
38428;DHT22;24211;49.980;19.776;2023-07-13T00:19:22;24.80;99.90
38428;DHT22;24211;49.980;19.776;2023-07-13T00:21:50;24.70;99.90
38428;DHT22;24211;49.980;19.776;2023-07-13T00:24:18;24.50;99.90
38428;DHT22;24211;49.980;19.776;2023-07-13T00:26:51;24.20;99.90
38428;DHT22;24211;49.980;19.776;2023-07-13T00:29:18;24.00;99.90
38428;DHT22;24211;49.980;19.776;2023-07-13T00:31:48;23.80;99.90
38428;DHT22;24211;49.980;19.776;2023-07-13T00:34:16;23.80;99.90
38428;DHT22;24211;49.980;19.776;2023-07-13T00:36:43;23.90;99.90
38428;DHT22;24211;49.980;19.776;2023-07-13T00:39:10;23.90;99.90
38428;DHT22;24211;49.980;19.776;2023-07-13T00:41:38;23.90;99.90
38428;DHT22;24211;49.980;19.776;2023-07-13T00:44:05;24.00;99.90
38428;DHT22;24211;49.980;19.776;2023-07-13T00:46:36;24.10;99.90
38428;DHT22;24211;49.980;19.776;2023-07-13T00:49:08;24.20;99.90
38428;DHT22;24211;49.980;19.776;2023-07-13T00:51:47;24.20;99.90
38428;DHT22;24211;49.980;19.776;2023-07-13T00:54:46;24.30;99.90
38428;DHT22;24211;49.980;19.776;2023-07-13T00:57:17;24.30;99.90
38428;DHT22;24211;49.980;19.776;2023-07-13T00:59:52;24.30;99.90
38428;DHT22;24211;49.980;19.776;2023-07-13T01:02:25;24.20;99.90
38428;DHT22;24211;49.980;19.776;2023-07-13T01:04:52;24.20;99.90
38428;DHT22;24211;49.980;19.776;2023-07-13T01:07:20;24.20;99.90
38428;DHT22;24211;49.980;19.776;2023-07-13T01:09:47;24.20;99.90
38428;DHT22;24211;49.980;19.776;2023-07-13T01:12:14;24.10;99.90
38428;DHT22;24211;49.980;19.776;2023-07-13T01:14:42;24.10;99.90
38428;DHT22;24211;49.980;19.776;2023-07-13T01:17:11;24.10;99.90
38428;DHT22;24211;49.980;19.776;2023-07-13T01:19:42;24.00;99.90
38428;DHT22;24211;49.980;19.776;2023-07-13T01:22:17;23.90;99.90
38428;DHT22;24211;49.980;19.776;2023-07-13T01:24:47;24.00;99.90
38428;DHT22;24211;49.980;19.776;2023-07-13T01:27:20;23.90;99.90
38428;DHT22;24211;49.980;19.776;2023-07-13T01:29:51;23.80;99.90
38428;DHT22;24211;49.980;19.776;2023-07-13T01:32:22;23.90;99.90
38428;DHT22;24211;49.980;19.776;2023-07-13T01:34:54;23.90;99.90
38428;DHT22;24211;49.980;19.776;2023-07-13T01:37:24;23.90;99.90
38428;DHT22;24211;49.980;19.776;2023-07-13T01:39:53;23.90;99.90
38428;DHT22;24211;49.980;19.776;2023-07-13T01:42:21;23.90;99.90
38428;DHT22;24211;49.980;19.776;2023-07-13T01:45:06;23.90;99.90
38428;DHT22;24211;49.980;19.776;2023-07-13T01:47:34;23.90;99.90
38428;DHT22;24211;49.980;19.776;2023-07-13T01:50:01;23.90;99.90
38428;DHT22;24211;49.980;19.776;2023-07-13T01:52:29;23.90;99.90
38428;DHT22;24211;49.980;19.776;2023-07-13T01:54:58;23.80;99.90
38428;DHT22;24211;49.980;19.776;2023-07-13T01:57:25;23.80;99.90
38428;DHT22;24211;49.980;19.776;2023-07-13T01:59:52;23.80;99.90
38428;DHT22;24211;49.980;19.776;2023-07-13T02:02:19;23.70;99.90
38428;DHT22;24211;49.980;19.776;2023-07-13T02:04:47;23.70;99.90
38428;DHT22;24211;49.980;19.776;2023-07-13T02:07:14;23.70;99.90
38428;DHT22;24211;49.980;19.776;2023-07-13T02:09:41;23.60;99.90
38428;DHT22;24211;49.980;19.776;2023-07-13T02:12:09;23.60;99.90
38428;DHT22;24211;49.980;19.776;2023-07-13T02:14:36;23.60;99.90
38428;DHT22;24211;49.980;19.776;2023-07-13T02:17:09;23.60;99.90
38428;DHT22;24211;49.980;19.776;2023-07-13T02:19:36;23.50;99.90
38428;DHT22;24211;49.980;19.776;2023-07-13T02:22:04;23.50;99.90
38428;DHT22;24211;49.980;19.776;2023-07-13T02:24:31;23.40;99.90
38428;DHT22;24211;49.980;19.776;2023-07-13T02:26:58;23.40;99.90
38428;DHT22;24211;49.980;19.776;2023-07-13T02:29:26;23.30;99.90
38428;DHT22;24211;49.980;19.776;2023-07-13T02:31:53;23.30;99.90
38428;DHT22;24211;49.980;19.776;2023-07-13T02:34:21;23.30;99.90
38428;DHT22;24211;49.980;19.776;2023-07-13T02:36:48;23.30;99.90
38428;DHT22;24211;49.980;19.776;2023-07-13T02:39:15;23.20;99.90
38428;DHT22;24211;49.980;19.776;2023-07-13T02:41:43;23.20;99.90
38428;DHT22;24211;49.980;19.776;2023-07-13T02:44:14;23.20;99.90
38428;DHT22;24211;49.980;19.776;2023-07-13T02:46:41;23.20;99.90
38428;DHT22;24211;49.980;19.776;2023-07-13T02:49:09;23.10;99.90
38428;DHT22;24211;49.980;19.776;2023-07-13T02:51:36;23.10;99.90
38428;DHT22;24211;49.980;19.776;2023-07-13T02:54:04;23.10;99.90
38428;DHT22;24211;49.980;19.776;2023-07-13T02:56:32;23.00;99.90
38428;DHT22;24211;49.980;19.776;2023-07-13T02:58:59;23.00;99.90
38428;DHT22;24211;49.980;19.776;2023-07-13T03:01:31;22.80;99.90
38428;DHT22;24211;49.980;19.776;2023-07-13T03:04:03;22.60;99.90
38428;DHT22;24211;49.980;19.776;2023-07-13T03:06:34;22.60;99.90
38428;DHT22;24211;49.980;19.776;2023-07-13T03:09:03;22.60;99.90
38428;DHT22;24211;49.980;19.776;2023-07-13T03:11:33;22.70;99.90
38428;DHT22;24211;49.980;19.776;2023-07-13T03:14:17;22.70;99.90
38428;DHT22;24211;49.980;19.776;2023-07-13T03:16:44;22.70;99.90
38428;DHT22;24211;49.980;19.776;2023-07-13T03:19:11;22.70;99.90
38428;DHT22;24211;49.980;19.776;2023-07-13T03:21:41;22.70;99.90
38428;DHT22;24211;49.980;19.776;2023-07-13T03:24:09;22.70;99.90
38428;DHT22;24211;49.980;19.776;2023-07-13T03:26:38;22.70;99.90
38428;DHT22;24211;49.980;19.776;2023-07-13T03:29:06;22.70;99.90
38428;DHT22;24211;49.980;19.776;2023-07-13T03:31:37;22.70;99.90
38428;DHT22;24211;49.980;19.776;2023-07-13T03:34:05;22.70;99.90
38428;DHT22;24211;49.980;19.776;2023-07-13T03:36:33;22.70;99.90
38428;DHT22;24211;49.980;19.776;2023-07-13T03:39:04;22.70;99.90
38428;DHT22;24211;49.980;19.776;2023-07-13T03:41:46;22.70;99.90
38428;DHT22;24211;49.980;19.776;2023-07-13T03:44:16;22.70;99.90
38428;DHT22;24211;49.980;19.776;2023-07-13T03:46:47;22.70;99.90
38428;DHT22;24211;49.980;19.776;2023-07-13T03:49:14;22.80;99.90
38428;DHT22;24211;49.980;19.776;2023-07-13T03:51:42;22.80;99.90
38428;DHT22;24211;49.980;19.776;2023-07-13T03:54:09;22.80;99.90
38428;DHT22;24211;49.980;19.776;2023-07-13T03:56:37;22.80;99.90
38428;DHT22;24211;49.980;19.776;2023-07-13T03:59:06;22.80;99.90
38428;DHT22;24211;49.980;19.776;2023-07-13T04:01:34;22.80;99.90
38428;DHT22;24211;49.980;19.776;2023-07-13T04:04:03;22.80;99.90
38428;DHT22;24211;49.980;19.776;2023-07-13T04:06:32;22.80;99.90
38428;DHT22;24211;49.980;19.776;2023-07-13T04:09:01;22.80;99.90
38428;DHT22;24211;49.980;19.776;2023-07-13T04:11:32;22.90;99.90
38428;DHT22;24211;49.980;19.776;2023-07-13T04:14:04;22.80;99.90
38428;DHT22;24211;49.980;19.776;2023-07-13T04:16:31;22.90;99.90
38428;DHT22;24211;49.980;19.776;2023-07-13T04:18:59;22.90;99.90
38428;DHT22;24211;49.980;19.776;2023-07-13T04:21:29;23.00;99.90
38428;DHT22;24211;49.980;19.776;2023-07-13T04:23:58;23.10;99.90
38428;DHT22;24211;49.980;19.776;2023-07-13T04:26:25;23.10;99.90
38428;DHT22;24211;49.980;19.776;2023-07-13T04:28:52;23.20;99.90
38428;DHT22;24211;49.980;19.776;2023-07-13T04:31:20;23.30;99.90
38428;DHT22;24211;49.980;19.776;2023-07-13T04:33:49;23.40;99.90
38428;DHT22;24211;49.980;19.776;2023-07-13T04:36:17;23.50;99.90
38428;DHT22;24211;49.980;19.776;2023-07-13T04:38:44;23.60;99.90
38428;DHT22;24211;49.980;19.776;2023-07-13T04:41:12;23.60;99.90
38428;DHT22;24211;49.980;19.776;2023-07-13T04:43:40;23.70;99.90
38428;DHT22;24211;49.980;19.776;2023-07-13T04:46:10;23.70;99.90
38428;DHT22;24211;49.980;19.776;2023-07-13T04:48:40;23.80;99.90
38428;DHT22;24211;49.980;19.776;2023-07-13T04:51:07;23.90;99.90
38428;DHT22;24211;49.980;19.776;2023-07-13T04:53:34;24.00;99.90
38428;DHT22;24211;49.980;19.776;2023-07-13T04:56:04;24.00;99.90
38428;DHT22;24211;49.980;19.776;2023-07-13T04:58:31;24.10;99.90
38428;DHT22;24211;49.980;19.776;2023-07-13T05:01:03;24.20;99.90
38428;DHT22;24211;49.980;19.776;2023-07-13T05:03:32;24.30;99.90
38428;DHT22;24211;49.980;19.776;2023-07-13T05:06:07;24.40;99.90
38428;DHT22;24211;49.980;19.776;2023-07-13T05:08:38;24.50;99.90
38428;DHT22;24211;49.980;19.776;2023-07-13T05:11:05;24.60;99.90
38428;DHT22;24211;49.980;19.776;2023-07-13T05:13:34;24.60;99.90
38428;DHT22;24211;49.980;19.776;2023-07-13T05:16:04;24.70;99.90
38428;DHT22;24211;49.980;19.776;2023-07-13T05:18:35;24.80;99.90
38428;DHT22;24211;49.980;19.776;2023-07-13T05:21:07;24.80;99.90
38428;DHT22;24211;49.980;19.776;2023-07-13T05:23:37;24.90;99.90
38428;DHT22;24211;49.980;19.776;2023-07-13T05:26:05;25.00;99.90
38428;DHT22;24211;49.980;19.776;2023-07-13T05:28:36;25.00;99.90
38428;DHT22;24211;49.980;19.776;2023-07-13T05:31:05;25.10;99.90
38428;DHT22;24211;49.980;19.776;2023-07-13T05:33:34;25.20;99.90
38428;DHT22;24211;49.980;19.776;2023-07-13T05:36:02;25.20;99.90
38428;DHT22;24211;49.980;19.776;2023-07-13T05:38:29;25.30;99.90
38428;DHT22;24211;49.980;19.776;2023-07-13T05:40:57;25.40;99.90
38428;DHT22;24211;49.980;19.776;2023-07-13T05:43:25;25.50;99.90
38428;DHT22;24211;49.980;19.776;2023-07-13T05:45:56;25.60;99.90
38428;DHT22;24211;49.980;19.776;2023-07-13T05:48:24;25.70;99.90
38428;DHT22;24211;49.980;19.776;2023-07-13T05:50:51;25.90;99.90
38428;DHT22;24211;49.980;19.776;2023-07-13T05:53:19;26.00;99.90
38428;DHT22;24211;49.980;19.776;2023-07-13T05:55:47;26.20;99.90
38428;DHT22;24211;49.980;19.776;2023-07-13T05:58:17;26.30;99.90
38428;DHT22;24211;49.980;19.776;2023-07-13T06:00:45;26.40;99.90
38428;DHT22;24211;49.980;19.776;2023-07-13T06:03:14;26.60;99.90
38428;DHT22;24211;49.980;19.776;2023-07-13T06:05:42;26.70;99.90
38428;DHT22;24211;49.980;19.776;2023-07-13T06:08:09;26.80;99.90
38428;DHT22;24211;49.980;19.776;2023-07-13T06:10:37;26.90;99.90
38428;DHT22;24211;49.980;19.776;2023-07-13T06:13:05;27.10;99.90
38428;DHT22;24211;49.980;19.776;2023-07-13T06:15:32;27.20;99.90
38428;DHT22;24211;49.980;19.776;2023-07-13T06:18:00;27.40;99.90
38428;DHT22;24211;49.980;19.776;2023-07-13T06:20:28;27.50;99.90
38428;DHT22;24211;49.980;19.776;2023-07-13T06:22:56;27.70;99.90
38428;DHT22;24211;49.980;19.776;2023-07-13T06:25:23;27.90;99.90
38428;DHT22;24211;49.980;19.776;2023-07-13T06:27:51;28.00;99.90
38428;DHT22;24211;49.980;19.776;2023-07-13T06:30:18;28.20;99.90
38428;DHT22;24211;49.980;19.776;2023-07-13T06:32:45;28.40;99.90
38428;DHT22;24211;49.980;19.776;2023-07-13T06:35:12;28.50;99.90
38428;DHT22;24211;49.980;19.776;2023-07-13T06:37:41;28.70;99.90
38428;DHT22;24211;49.980;19.776;2023-07-13T06:40:08;28.80;99.90
38428;DHT22;24211;49.980;19.776;2023-07-13T06:42:36;29.00;99.90
38428;DHT22;24211;49.980;19.776;2023-07-13T06:45:05;29.00;99.90
38428;DHT22;24211;49.980;19.776;2023-07-13T06:47:33;29.10;99.90
38428;DHT22;24211;49.980;19.776;2023-07-13T06:50:00;29.20;99.90
38428;DHT22;24211;49.980;19.776;2023-07-13T06:52:30;29.40;99.90
38428;DHT22;24211;49.980;19.776;2023-07-13T06:54:57;29.50;99.90
38428;DHT22;24211;49.980;19.776;2023-07-13T06:57:24;29.60;99.90
38428;DHT22;24211;49.980;19.776;2023-07-13T06:59:52;29.80;99.90
38428;DHT22;24211;49.980;19.776;2023-07-13T07:02:19;29.90;99.90
38428;DHT22;24211;49.980;19.776;2023-07-13T07:04:46;30.00;99.90
38428;DHT22;24211;49.980;19.776;2023-07-13T07:07:13;30.20;99.90
38428;DHT22;24211;49.980;19.776;2023-07-13T07:09:40;30.40;99.90
38428;DHT22;24211;49.980;19.776;2023-07-13T07:12:08;30.70;99.90
38428;DHT22;24211;49.980;19.776;2023-07-13T07:14:35;30.90;99.90
38428;DHT22;24211;49.980;19.776;2023-07-13T07:17:02;31.10;99.90
38428;DHT22;24211;49.980;19.776;2023-07-13T07:19:30;31.30;99.90
38428;DHT22;24211;49.980;19.776;2023-07-13T07:21:58;31.50;99.90
38428;DHT22;24211;49.980;19.776;2023-07-13T07:24:25;31.60;99.90
38428;DHT22;24211;49.980;19.776;2023-07-13T07:26:52;31.70;99.90
38428;DHT22;24211;49.980;19.776;2023-07-13T07:29:22;31.70;99.90
38428;DHT22;24211;49.980;19.776;2023-07-13T07:31:52;31.80;99.90
38428;DHT22;24211;49.980;19.776;2023-07-13T07:34:23;31.80;99.90
38428;DHT22;24211;49.980;19.776;2023-07-13T07:36:51;31.80;99.90
38428;DHT22;24211;49.980;19.776;2023-07-13T07:39:21;32.00;99.90
38428;DHT22;24211;49.980;19.776;2023-07-13T07:41:49;31.90;99.90
38428;DHT22;24211;49.980;19.776;2023-07-13T07:44:18;32.00;99.90
38428;DHT22;24211;49.980;19.776;2023-07-13T07:46:46;32.10;99.90
38428;DHT22;24211;49.980;19.776;2023-07-13T07:49:13;32.20;99.90
38428;DHT22;24211;49.980;19.776;2023-07-13T07:51:41;32.30;99.90
38428;DHT22;24211;49.980;19.776;2023-07-13T07:54:08;32.30;99.90
38428;DHT22;24211;49.980;19.776;2023-07-13T07:56:40;32.40;99.90
38428;DHT22;24211;49.980;19.776;2023-07-13T07:59:10;32.40;99.90
38428;DHT22;24211;49.980;19.776;2023-07-13T08:01:40;32.50;99.90
38428;DHT22;24211;49.980;19.776;2023-07-13T08:04:27;32.60;99.90
38428;DHT22;24211;49.980;19.776;2023-07-13T08:06:58;32.80;99.90
38428;DHT22;24211;49.980;19.776;2023-07-13T08:09:25;32.90;99.80
38428;DHT22;24211;49.980;19.776;2023-07-13T08:11:52;33.10;99.60
38428;DHT22;24211;49.980;19.776;2023-07-13T08:14:24;33.10;99.50
38428;DHT22;24211;49.980;19.776;2023-07-13T08:17:05;33.20;99.40
38428;DHT22;24211;49.980;19.776;2023-07-13T08:19:32;33.30;99.30
38428;DHT22;24211;49.980;19.776;2023-07-13T08:21:59;33.20;99.10
38428;DHT22;24211;49.980;19.776;2023-07-13T08:24:26;33.20;99.10
38428;DHT22;24211;49.980;19.776;2023-07-13T08:26:54;33.20;99.10
38428;DHT22;24211;49.980;19.776;2023-07-13T08:29:21;33.20;99.10
38428;DHT22;24211;49.980;19.776;2023-07-13T08:31:48;33.40;99.10
38428;DHT22;24211;49.980;19.776;2023-07-13T08:34:15;33.50;99.00
38428;DHT22;24211;49.980;19.776;2023-07-13T08:36:44;33.60;98.90
38428;DHT22;24211;49.980;19.776;2023-07-13T08:39:10;33.70;98.90
38428;DHT22;24211;49.980;19.776;2023-07-13T08:41:38;33.90;98.80
38428;DHT22;24211;49.980;19.776;2023-07-13T08:44:15;33.90;98.60
38428;DHT22;24211;49.980;19.776;2023-07-13T08:46:51;33.90;98.50
38428;DHT22;24211;49.980;19.776;2023-07-13T08:49:22;34.00;98.30
38428;DHT22;24211;49.980;19.776;2023-07-13T08:51:54;33.90;98.60
38428;DHT22;24211;49.980;19.776;2023-07-13T08:57:18;34.00;98.30
38428;DHT22;24211;49.980;19.776;2023-07-13T08:59:48;33.90;98.30
38428;DHT22;24211;49.980;19.776;2023-07-13T09:05:02;34.00;98.10
38428;DHT22;24211;49.980;19.776;2023-07-13T09:07:58;34.00;98.00
38428;DHT22;24211;49.980;19.776;2023-07-13T09:10:42;33.90;98.30
38428;DHT22;24211;49.980;19.776;2023-07-13T09:13:27;34.00;97.70
38428;DHT22;24211;49.980;19.776;2023-07-13T09:16:04;34.00;97.50
38428;DHT22;24211;49.980;19.776;2023-07-13T09:18:41;33.90;97.30
38428;DHT22;24211;49.980;19.776;2023-07-13T09:21:22;33.80;97.40
38428;DHT22;24211;49.980;19.776;2023-07-13T09:23:58;33.80;97.50
38428;DHT22;24211;49.980;19.776;2023-07-13T09:26:30;33.70;97.40
38428;DHT22;24211;49.980;19.776;2023-07-13T09:29:12;33.60;97.50
38428;DHT22;24211;49.980;19.776;2023-07-13T09:31:50;33.50;97.60
38428;DHT22;24211;49.980;19.776;2023-07-13T09:34:21;33.40;97.80
38428;DHT22;24211;49.980;19.776;2023-07-13T09:36:48;33.10;98.00
38428;DHT22;24211;49.980;19.776;2023-07-13T09:39:45;33.00;98.20
38428;DHT22;24211;49.980;19.776;2023-07-13T09:42:18;32.80;98.30
38428;DHT22;24211;49.980;19.776;2023-07-13T09:44:54;32.60;98.50
38428;DHT22;24211;49.980;19.776;2023-07-13T09:47:31;32.50;98.70
38428;DHT22;24211;49.980;19.776;2023-07-13T09:50:08;32.20;98.80
38428;DHT22;24211;49.980;19.776;2023-07-13T09:52:44;32.00;99.00
38428;DHT22;24211;49.980;19.776;2023-07-13T09:58:21;31.80;99.20
38428;DHT22;24211;49.980;19.776;2023-07-13T10:01:00;31.60;99.40
38428;DHT22;24211;49.980;19.776;2023-07-13T10:03:34;31.60;99.70
38428;DHT22;24211;49.980;19.776;2023-07-13T10:06:18;31.40;99.90
38428;DHT22;24211;49.980;19.776;2023-07-13T10:08:50;31.20;99.90
38428;DHT22;24211;49.980;19.776;2023-07-13T10:11:27;31.00;99.90
38428;DHT22;24211;49.980;19.776;2023-07-13T10:13:59;30.80;99.90
38428;DHT22;24211;49.980;19.776;2023-07-13T10:16:32;30.60;99.90
38428;DHT22;24211;49.980;19.776;2023-07-13T10:19:11;30.50;99.90
38428;DHT22;24211;49.980;19.776;2023-07-13T10:22:01;30.30;99.90
38428;DHT22;24211;49.980;19.776;2023-07-13T10:24:37;29.90;99.90
38428;DHT22;24211;49.980;19.776;2023-07-13T10:27:30;29.70;99.90
38428;DHT22;24211;49.980;19.776;2023-07-13T10:32:50;29.10;99.90
38428;DHT22;24211;49.980;19.776;2023-07-13T10:35:19;28.80;99.90
38428;DHT22;24211;49.980;19.776;2023-07-13T10:38:03;28.60;99.90
38428;DHT22;24211;49.980;19.776;2023-07-13T10:41:11;28.50;99.90
38428;DHT22;24211;49.980;19.776;2023-07-13T10:43:39;28.40;99.90
38428;DHT22;24211;49.980;19.776;2023-07-13T10:46:14;28.50;99.90
38428;DHT22;24211;49.980;19.776;2023-07-13T10:48:46;28.50;99.90
38428;DHT22;24211;49.980;19.776;2023-07-13T10:51:18;28.50;99.90
38428;DHT22;24211;49.980;19.776;2023-07-13T10:54:14;28.50;99.90
38428;DHT22;24211;49.980;19.776;2023-07-13T10:56:49;28.40;99.90
38428;DHT22;24211;49.980;19.776;2023-07-13T10:59:24;28.30;99.90
38428;DHT22;24211;49.980;19.776;2023-07-13T11:02:22;28.10;99.90
38428;DHT22;24211;49.980;19.776;2023-07-13T11:04:55;27.80;99.90
38428;DHT22;24211;49.980;19.776;2023-07-13T11:07:27;27.40;99.90
38428;DHT22;24211;49.980;19.776;2023-07-13T11:09:58;27.20;99.90
38428;DHT22;24211;49.980;19.776;2023-07-13T11:12:49;27.10;99.90
38428;DHT22;24211;49.980;19.776;2023-07-13T11:15:31;26.90;99.90
38428;DHT22;24211;49.980;19.776;2023-07-13T11:18:21;26.60;99.90
38428;DHT22;24211;49.980;19.776;2023-07-13T11:20:51;26.30;99.90
38428;DHT22;24211;49.980;19.776;2023-07-13T11:23:27;26.10;99.90
38428;DHT22;24211;49.980;19.776;2023-07-13T11:25:56;25.60;99.90
38428;DHT22;24211;49.980;19.776;2023-07-13T11:28:25;24.80;99.90
38428;DHT22;24211;49.980;19.776;2023-07-13T11:36:19;23.60;99.90
38428;DHT22;24211;49.980;19.776;2023-07-13T11:39:03;23.30;99.90
38428;DHT22;24211;49.980;19.776;2023-07-13T11:41:50;23.20;99.90
38428;DHT22;24211;49.980;19.776;2023-07-13T11:44:21;23.00;99.90
38428;DHT22;24211;49.980;19.776;2023-07-13T11:46:54;23.00;99.90
38428;DHT22;24211;49.980;19.776;2023-07-13T11:49:25;23.00;99.90
38428;DHT22;24211;49.980;19.776;2023-07-13T11:51:54;22.90;99.90
38428;DHT22;24211;49.980;19.776;2023-07-13T11:54:34;22.90;99.90
38428;DHT22;24211;49.980;19.776;2023-07-13T11:59:51;23.00;99.90
38428;DHT22;24211;49.980;19.776;2023-07-13T12:02:45;23.20;99.90
38428;DHT22;24211;49.980;19.776;2023-07-13T12:05:19;23.40;99.90
38428;DHT22;24211;49.980;19.776;2023-07-13T12:07:49;23.40;99.90
38428;DHT22;24211;49.980;19.776;2023-07-13T12:10:22;23.50;99.90
38428;DHT22;24211;49.980;19.776;2023-07-13T12:15:36;23.60;99.90
38428;DHT22;24211;49.980;19.776;2023-07-13T12:18:19;23.70;99.90
38428;DHT22;24211;49.980;19.776;2023-07-13T12:20:49;23.80;99.90
38428;DHT22;24211;49.980;19.776;2023-07-13T12:26:03;23.80;99.90
38428;DHT22;24211;49.980;19.776;2023-07-13T12:28:36;23.90;99.90
38428;DHT22;24211;49.980;19.776;2023-07-13T12:31:22;23.90;99.90
38428;DHT22;24211;49.980;19.776;2023-07-13T12:34:00;23.90;99.90
38428;DHT22;24211;49.980;19.776;2023-07-13T12:36:37;23.90;99.90
38428;DHT22;24211;49.980;19.776;2023-07-13T12:41:44;23.90;99.90
38428;DHT22;24211;49.980;19.776;2023-07-13T12:44:15;23.90;99.90
38428;DHT22;24211;49.980;19.776;2023-07-13T12:47:14;24.00;99.90
38428;DHT22;24211;49.980;19.776;2023-07-13T12:49:48;24.00;99.90
38428;DHT22;24211;49.980;19.776;2023-07-13T12:52:34;24.00;99.90
38428;DHT22;24211;49.980;19.776;2023-07-13T12:55:16;24.00;99.90
38428;DHT22;24211;49.980;19.776;2023-07-13T12:57:52;24.00;99.90
38428;DHT22;24211;49.980;19.776;2023-07-13T13:00:26;24.00;99.90
38428;DHT22;24211;49.980;19.776;2023-07-13T13:05:58;24.00;99.90
38428;DHT22;24211;49.980;19.776;2023-07-13T13:08:26;24.10;99.90
38428;DHT22;24211;49.980;19.776;2023-07-13T13:10:54;24.10;99.90
38428;DHT22;24211;49.980;19.776;2023-07-13T13:13:21;24.10;99.90
38428;DHT22;24211;49.980;19.776;2023-07-13T13:15:48;24.20;99.90
38428;DHT22;24211;49.980;19.776;2023-07-13T13:18:21;24.20;99.90
38428;DHT22;24211;49.980;19.776;2023-07-13T13:20:51;24.30;99.90
38428;DHT22;24211;49.980;19.776;2023-07-13T13:23:20;24.30;99.90
38428;DHT22;24211;49.980;19.776;2023-07-13T13:25:49;24.40;99.90
38428;DHT22;24211;49.980;19.776;2023-07-13T13:28:19;24.40;99.90
38428;DHT22;24211;49.980;19.776;2023-07-13T13:30:49;24.40;99.90
38428;DHT22;24211;49.980;19.776;2023-07-13T13:33:20;24.50;99.90
38428;DHT22;24211;49.980;19.776;2023-07-13T13:35:49;24.40;99.90
38428;DHT22;24211;49.980;19.776;2023-07-13T13:38:22;24.50;99.90
38428;DHT22;24211;49.980;19.776;2023-07-13T13:40:53;24.50;99.90
38428;DHT22;24211;49.980;19.776;2023-07-13T13:43:23;24.50;99.90
38428;DHT22;24211;49.980;19.776;2023-07-13T13:45:57;24.60;99.90
38428;DHT22;24211;49.980;19.776;2023-07-13T13:48:31;24.60;99.90
38428;DHT22;24211;49.980;19.776;2023-07-13T13:51:01;24.60;99.90
38428;DHT22;24211;49.980;19.776;2023-07-13T13:53:40;24.70;99.90
38428;DHT22;24211;49.980;19.776;2023-07-13T13:56:07;24.80;99.90
38428;DHT22;24211;49.980;19.776;2023-07-13T13:58:34;24.80;99.90
38428;DHT22;24211;49.980;19.776;2023-07-13T14:01:02;24.90;99.90
38428;DHT22;24211;49.980;19.776;2023-07-13T14:03:29;25.00;99.90
38428;DHT22;24211;49.980;19.776;2023-07-13T14:05:57;25.20;99.90
38428;DHT22;24211;49.980;19.776;2023-07-13T14:08:24;25.20;99.90
38428;DHT22;24211;49.980;19.776;2023-07-13T14:10:54;25.30;99.90
38428;DHT22;24211;49.980;19.776;2023-07-13T14:13:27;25.40;99.90
38428;DHT22;24211;49.980;19.776;2023-07-13T14:15:59;25.40;99.90
38428;DHT22;24211;49.980;19.776;2023-07-13T14:18:26;25.50;99.90
38428;DHT22;24211;49.980;19.776;2023-07-13T14:20:53;25.60;99.90
38428;DHT22;24211;49.980;19.776;2023-07-13T14:23:21;25.70;99.90
38428;DHT22;24211;49.980;19.776;2023-07-13T14:25:49;25.70;99.90
38428;DHT22;24211;49.980;19.776;2023-07-13T14:28:23;25.70;99.90
38428;DHT22;24211;49.980;19.776;2023-07-13T14:30:53;25.80;99.90
38428;DHT22;24211;49.980;19.776;2023-07-13T14:33:21;25.90;99.90
38428;DHT22;24211;49.980;19.776;2023-07-13T14:35:50;25.90;99.90
38428;DHT22;24211;49.980;19.776;2023-07-13T14:38:20;26.00;99.90
38428;DHT22;24211;49.980;19.776;2023-07-13T14:40:47;26.10;99.90
38428;DHT22;24211;49.980;19.776;2023-07-13T14:43:16;26.10;99.90
38428;DHT22;24211;49.980;19.776;2023-07-13T14:45:47;26.20;99.90
38428;DHT22;24211;49.980;19.776;2023-07-13T14:48:17;26.10;99.90
38428;DHT22;24211;49.980;19.776;2023-07-13T14:50:54;26.00;99.90
38428;DHT22;24211;49.980;19.776;2023-07-13T14:53:25;25.90;99.90
38428;DHT22;24211;49.980;19.776;2023-07-13T14:55:56;25.90;99.90
38428;DHT22;24211;49.980;19.776;2023-07-13T14:58:23;25.80;99.90
38428;DHT22;24211;49.980;19.776;2023-07-13T15:00:50;25.80;99.90
38428;DHT22;24211;49.980;19.776;2023-07-13T15:03:24;25.90;99.90
38428;DHT22;24211;49.980;19.776;2023-07-13T15:05:52;25.90;99.90
38428;DHT22;24211;49.980;19.776;2023-07-13T15:08:20;25.90;99.90
38428;DHT22;24211;49.980;19.776;2023-07-13T15:10:47;25.80;99.90
38428;DHT22;24211;49.980;19.776;2023-07-13T15:13:17;25.80;99.90
38428;DHT22;24211;49.980;19.776;2023-07-13T15:15:51;25.90;99.90
38428;DHT22;24211;49.980;19.776;2023-07-13T15:18:22;25.90;99.90
38428;DHT22;24211;49.980;19.776;2023-07-13T15:20:52;25.90;99.90
38428;DHT22;24211;49.980;19.776;2023-07-13T15:23:20;25.90;99.90
38428;DHT22;24211;49.980;19.776;2023-07-13T15:25:48;26.00;99.90
38428;DHT22;24211;49.980;19.776;2023-07-13T15:28:15;25.90;99.90
38428;DHT22;24211;49.980;19.776;2023-07-13T15:30:45;25.90;99.90
38428;DHT22;24211;49.980;19.776;2023-07-13T15:33:32;26.00;99.90
38428;DHT22;24211;49.980;19.776;2023-07-13T15:36:10;26.00;99.90
38428;DHT22;24211;49.980;19.776;2023-07-13T15:38:43;26.20;99.90
38428;DHT22;24211;49.980;19.776;2023-07-13T15:41:28;26.40;99.90
38428;DHT22;24211;49.980;19.776;2023-07-13T15:43:57;26.70;99.90
38428;DHT22;24211;49.980;19.776;2023-07-13T15:46:27;27.00;99.90
38428;DHT22;24211;49.980;19.776;2023-07-13T15:48:57;27.30;99.90
38428;DHT22;24211;49.980;19.776;2023-07-13T15:51:27;27.50;99.90
38428;DHT22;24211;49.980;19.776;2023-07-13T15:53:59;27.70;99.90
38428;DHT22;24211;49.980;19.776;2023-07-13T15:56:35;27.60;99.90
38428;DHT22;24211;49.980;19.776;2023-07-13T15:59:04;27.90;99.90
38428;DHT22;24211;49.980;19.776;2023-07-13T16:01:32;27.80;99.90
38428;DHT22;24211;49.980;19.776;2023-07-13T16:04:00;27.80;99.90
38428;DHT22;24211;49.980;19.776;2023-07-13T16:06:36;27.70;99.90
38428;DHT22;24211;49.980;19.776;2023-07-13T16:09:17;27.70;99.90
38428;DHT22;24211;49.980;19.776;2023-07-13T16:11:50;27.60;99.90